createdAt,value
2022-12-07T00:01:42.564Z,5.60
2022-12-07T00:04:12.460Z,3.97
2022-12-07T00:06:41.101Z,4.90
2022-12-07T00:09:11.042Z,3.80
2022-12-07T00:11:37.989Z,6.15
2022-12-07T00:14:08.173Z,5.65
2022-12-07T00:16:35.642Z,5.82
2022-12-07T00:19:02.702Z,4.47
2022-12-07T00:21:32.263Z,4.45
2022-12-07T00:23:59.381Z,4.05
2022-12-07T00:26:31.722Z,4.55
2022-12-07T00:29:11.421Z,3.85
2022-12-07T00:31:40.186Z,2.75
2022-12-07T00:34:08.538Z,3.63
2022-12-07T00:36:35.423Z,3.20
2022-12-07T00:39:03.322Z,3.70
2022-12-07T00:41:31.043Z,4.68
2022-12-07T00:43:58.004Z,3.15
2022-12-07T00:46:25.924Z,3.40
2022-12-07T00:48:54.080Z,3.17
2022-12-07T00:51:24.176Z,1.85
2022-12-07T00:53:51.318Z,2.03
2022-12-07T00:56:28.519Z,2.03
2022-12-07T00:59:00.180Z,1.95
2022-12-07T01:01:29.431Z,1.88
2022-12-07T01:03:56.611Z,2.75
2022-12-07T01:06:24.323Z,2.15
2022-12-07T01:08:51.220Z,3.17
2022-12-07T01:11:20.581Z,2.47
2022-12-07T01:13:47.577Z,2.42
2022-12-07T01:16:16.157Z,1.88
2022-12-07T01:18:43.948Z,1.52
2022-12-07T01:21:14.144Z,1.67
2022-12-07T01:23:41.396Z,1.08
2022-12-07T01:26:11.799Z,1.20
2022-12-07T01:28:39.125Z,0.88
2022-12-07T01:31:08.782Z,0.95
2022-12-07T01:33:37.643Z,1.48
2022-12-07T01:36:14.381Z,1.00
2022-12-07T01:38:41.574Z,0.90
2022-12-07T01:41:08.457Z,1.15
2022-12-07T01:43:35.627Z,0.75
2022-12-07T01:46:03.441Z,1.25
2022-12-07T01:48:35.283Z,1.13
2022-12-07T01:51:06.213Z,1.08
2022-12-07T01:53:35.958Z,0.80
2022-12-07T01:56:02.910Z,1.00
2022-12-07T01:58:30.014Z,0.75
2022-12-07T02:00:56.812Z,0.90
2022-12-07T02:03:30.603Z,0.85
2022-12-07T02:06:00.318Z,0.70
2022-12-07T02:08:27.134Z,0.88
2022-12-07T02:10:53.976Z,1.50
2022-12-07T02:13:33.704Z,1.52
2022-12-07T02:16:19.782Z,0.98
2022-12-07T02:18:46.528Z,0.98
2022-12-07T02:21:31.961Z,1.10
2022-12-07T02:24:13.418Z,0.80
2022-12-07T02:27:04.414Z,1.58
2022-12-07T02:29:55.989Z,1.40
2022-12-07T02:32:36.515Z,1.20
2022-12-07T02:35:08.889Z,1.80
2022-12-07T02:37:38.877Z,1.15
2022-12-07T02:40:24.188Z,0.80
2022-12-07T02:42:56.822Z,1.17
2022-12-07T02:45:25.625Z,1.05
2022-12-07T02:47:54.939Z,1.05
2022-12-07T02:50:22.608Z,0.75
2022-12-07T02:52:50.089Z,1.15
2022-12-07T02:55:18.628Z,1.00
2022-12-07T02:57:55.979Z,0.63
2022-12-07T03:00:22.960Z,1.05
2022-12-07T03:03:06.473Z,0.77
2022-12-07T03:05:38.718Z,0.90
2022-12-07T03:08:33.389Z,1.35
2022-12-07T03:11:06.781Z,1.25
2022-12-07T03:13:41.013Z,0.93
2022-12-07T03:16:16.171Z,1.25
2022-12-07T03:18:50.523Z,1.13
2022-12-07T03:21:21.608Z,1.15
2022-12-07T03:23:52.701Z,1.20
2022-12-07T03:26:20.827Z,1.20
2022-12-07T03:28:52.751Z,1.50
2022-12-07T03:31:33.268Z,1.15
2022-12-07T03:34:05.620Z,1.50
2022-12-07T03:36:49.106Z,0.98
2022-12-07T03:39:22.834Z,1.38
2022-12-07T03:41:49.911Z,1.92
2022-12-07T03:44:16.959Z,1.05
2022-12-07T03:46:52.238Z,1.35
2022-12-07T03:49:40.380Z,1.60
2022-12-07T03:52:33.361Z,1.02
2022-12-07T03:55:07.568Z,3.88
2022-12-07T03:57:35.093Z,1.50
2022-12-07T04:00:02.475Z,1.35
2022-12-07T04:02:39.344Z,1.45
2022-12-07T04:05:06.827Z,1.70
2022-12-07T04:07:33.742Z,36.55
2022-12-07T04:10:01.241Z,2.30
2022-12-07T04:12:28.160Z,18.00
2022-12-07T04:14:54.900Z,16.45
2022-12-07T04:17:21.580Z,18.67
2022-12-07T04:19:48.381Z,1.25
2022-12-07T04:22:15.034Z,1.10
2022-12-07T04:24:42.439Z,1.10
2022-12-07T04:27:09.205Z,1.17
2022-12-07T04:29:36.096Z,0.90
2022-12-07T04:32:02.769Z,0.93
2022-12-07T04:34:29.753Z,0.82
2022-12-07T04:36:56.490Z,1.35
2022-12-07T04:39:26.194Z,1.55
2022-12-07T04:41:53.183Z,4.80
2022-12-07T04:44:20.906Z,3.78
2022-12-07T04:46:48.007Z,5.43
2022-12-07T04:49:15.512Z,3.58
2022-12-07T04:51:43.597Z,3.08
2022-12-07T04:54:10.473Z,3.70
2022-12-07T04:56:37.494Z,2.10
2022-12-07T04:59:04.957Z,1.40
2022-12-07T05:01:32.914Z,1.55
2022-12-07T05:04:00.235Z,1.15
2022-12-07T05:06:27.101Z,1.42
2022-12-07T05:08:53.975Z,1.27
2022-12-07T05:11:39.285Z,1.17
2022-12-07T05:14:20.446Z,1.30
2022-12-07T05:16:49.961Z,1.20
2022-12-07T05:19:17.243Z,1.17
2022-12-07T05:21:44.034Z,1.92
2022-12-07T05:24:13.029Z,2.22
2022-12-07T05:26:39.939Z,2.17
2022-12-07T05:29:08.501Z,4.03
2022-12-07T05:31:38.917Z,1.67
2022-12-07T05:34:05.718Z,3.75
2022-12-07T05:36:33.001Z,1.63
2022-12-07T05:39:00.135Z,2.13
2022-12-07T05:41:45.681Z,1.40
2022-12-07T05:44:12.532Z,2.08
2022-12-07T05:46:39.316Z,1.17
2022-12-07T05:49:06.106Z,1.50
2022-12-07T05:51:32.773Z,1.83
2022-12-07T05:53:59.667Z,0.75
2022-12-07T05:56:27.670Z,1.52
2022-12-07T05:59:13.776Z,1.77
2022-12-07T06:01:41.215Z,1.42
2022-12-07T06:04:08.060Z,1.15
2022-12-07T06:06:34.860Z,1.85
2022-12-07T06:09:01.591Z,1.63
2022-12-07T06:11:47.013Z,1.88
2022-12-07T06:16:40.569Z,1.25
2022-12-07T06:19:07.376Z,1.20
2022-12-07T06:21:34.070Z,1.38
2022-12-07T06:24:00.939Z,1.77
2022-12-07T06:26:27.642Z,1.73
2022-12-07T06:28:54.416Z,1.83
2022-12-07T06:31:21.137Z,1.58
2022-12-07T06:33:48.007Z,2.40
2022-12-07T06:36:15.094Z,1.20
2022-12-07T06:38:41.959Z,1.80
2022-12-07T06:41:08.833Z,4.90
2022-12-07T06:43:35.962Z,1.30
2022-12-07T06:46:02.742Z,1.63
2022-12-07T06:48:29.637Z,1.23
2022-12-07T06:50:56.297Z,2.38
2022-12-07T06:53:23.708Z,1.85
2022-12-07T06:55:50.656Z,2.15
2022-12-07T06:58:18.440Z,2.10
2022-12-07T07:00:46.160Z,1.85
2022-12-07T07:03:13.490Z,1.42
2022-12-07T07:05:40.358Z,1.85
2022-12-07T07:08:23.952Z,4.35
2022-12-07T07:10:51.907Z,2.08
2022-12-07T07:13:19.270Z,1.45
2022-12-07T07:15:46.639Z,1.30
2022-12-07T07:18:13.908Z,0.95
2022-12-07T07:20:41.280Z,1.83
2022-12-07T07:23:08.670Z,1.92
2022-12-07T07:25:36.279Z,1.52
2022-12-07T07:28:04.092Z,1.65
2022-12-07T07:30:31.928Z,1.95
2022-12-07T07:33:00.024Z,1.83
2022-12-07T07:35:28.202Z,36.70
2022-12-07T07:37:55.183Z,7.00
2022-12-07T07:40:23.111Z,4.88
2022-12-07T07:42:51.155Z,2.70
2022-12-07T07:45:18.634Z,1.73
2022-12-07T07:47:46.164Z,5.45
2022-12-07T07:50:13.332Z,3.22
2022-12-07T07:52:41.243Z,3.80
2022-12-07T07:55:10.118Z,3.85
2022-12-07T07:57:37.807Z,2.45
2022-12-07T08:00:06.552Z,2.85
2022-12-07T08:02:39.729Z,8.57
2022-12-07T08:05:07.924Z,12.57
2022-12-07T08:07:35.147Z,3.92
2022-12-07T08:10:03.092Z,4.57
2022-12-07T08:12:30.012Z,5.07
2022-12-07T08:14:56.920Z,4.15
2022-12-07T08:17:23.924Z,3.50
2022-12-07T08:19:50.974Z,2.88
2022-12-07T08:22:18.004Z,4.63
2022-12-07T08:24:44.761Z,4.28
2022-12-07T08:27:11.625Z,4.45
2022-12-07T08:29:38.283Z,4.72
2022-12-07T08:32:09.423Z,3.45
2022-12-07T08:34:37.056Z,3.05
2022-12-07T08:37:04.038Z,4.40
2022-12-07T08:39:32.172Z,2.30
2022-12-07T08:41:59.528Z,2.28
2022-12-07T08:44:26.493Z,2.90
2022-12-07T08:47:03.421Z,5.90
2022-12-07T08:49:37.793Z,2.63
2022-12-07T08:52:06.035Z,5.47
2022-12-07T08:54:35.584Z,31.15
2022-12-07T08:57:02.487Z,28.30
2022-12-07T08:59:29.985Z,33.13
2022-12-07T09:01:57.073Z,32.60
2022-12-07T09:04:23.916Z,55.50
2022-12-07T09:06:50.882Z,20.20
2022-12-07T09:09:17.598Z,29.98
2022-12-07T09:11:46.366Z,20.80
2022-12-07T09:14:13.601Z,9.52
2022-12-07T09:16:40.884Z,11.52
2022-12-07T09:19:09.202Z,29.48
2022-12-07T09:21:36.004Z,26.88
2022-12-07T09:24:02.863Z,24.30
2022-12-07T09:26:30.143Z,11.35
2022-12-07T09:28:57.003Z,13.13
2022-12-07T09:31:25.824Z,24.58
2022-12-07T09:33:57.881Z,6.90
2022-12-07T09:36:26.543Z,12.75
2022-12-07T09:38:53.422Z,21.63
2022-12-07T09:41:21.636Z,20.30
2022-12-07T09:43:48.497Z,28.08
2022-12-07T10:43:01.981Z,11.70
2022-12-07T10:45:28.884Z,5.25
2022-12-07T10:48:04.533Z,4.70
2022-12-07T10:51:06.534Z,7.03
2022-12-07T10:53:39.521Z,7.70
2022-12-07T10:56:51.178Z,4.18
2022-12-07T11:11:18.032Z,3.03
2022-12-07T11:14:26.307Z,2.40
2022-12-07T11:16:58.286Z,6.57
2022-12-07T11:19:54.269Z,5.22
2022-12-07T11:22:27.467Z,2.97
2022-12-07T11:25:22.045Z,2.72
2022-12-07T11:28:19.949Z,5.22
2022-12-07T11:31:14.387Z,7.03
2022-12-07T11:33:48.408Z,7.28
2022-12-07T11:36:30.368Z,7.72
2022-12-07T11:39:00.043Z,7.90
2022-12-07T11:41:34.606Z,14.05
2022-12-07T11:44:08.876Z,9.02
2022-12-07T11:47:02.341Z,11.88
2022-12-07T11:49:44.154Z,2.47
2022-12-07T11:52:34.916Z,18.52
2022-12-07T11:55:03.316Z,1.08
2022-12-07T11:57:39.274Z,2.15
2022-12-07T12:00:11.514Z,0.70
2022-12-07T12:02:47.781Z,2.28
2022-12-07T12:05:22.522Z,2.00
2022-12-07T12:11:13.153Z,2.53
2022-12-07T12:14:34.772Z,4.20
2022-12-07T12:17:21.378Z,1.70
2022-12-07T12:20:30.873Z,1.20
2022-12-07T12:23:20.800Z,4.70
2022-12-07T12:25:51.027Z,3.15
2022-12-07T12:28:50.060Z,1.45
2022-12-07T12:31:40.568Z,1.13
2022-12-07T12:34:34.579Z,0.80
2022-12-07T12:37:02.230Z,0.85
2022-12-07T12:39:29.237Z,0.77
2022-12-07T12:41:57.648Z,1.30
2022-12-07T12:44:24.229Z,1.95
2022-12-07T12:46:59.988Z,4.35
2022-12-07T12:49:26.855Z,4.13
2022-12-07T12:52:04.332Z,5.32
2022-12-07T12:54:33.844Z,9.93
2022-12-07T12:57:00.894Z,7.28
2022-12-07T12:59:32.229Z,3.67
2022-12-07T13:02:47.958Z,8.43
2022-12-07T13:05:14.954Z,18.98
2022-12-07T13:07:48.702Z,22.70
2022-12-07T13:10:24.972Z,30.42
2022-12-07T13:13:15.119Z,7.80
2022-12-07T13:15:52.300Z,12.55
2022-12-07T13:18:28.664Z,13.80
2022-12-07T13:21:01.600Z,7.15
2022-12-07T13:23:38.579Z,5.72
2022-12-07T13:26:06.934Z,15.95
2022-12-07T13:28:39.874Z,10.60
2022-12-07T13:31:19.183Z,6.65
2022-12-07T13:33:48.357Z,6.80
2022-12-07T13:36:27.583Z,4.63
2022-12-07T13:39:00.123Z,4.70
2022-12-07T13:41:29.279Z,4.78
2022-12-07T13:44:11.115Z,5.28
2022-12-07T13:46:48.726Z,10.13
2022-12-07T13:49:27.417Z,5.28
2022-12-07T13:51:55.674Z,4.65
2022-12-07T13:54:22.701Z,4.65
2022-12-07T13:56:52.046Z,8.27
2022-12-07T14:25:54.147Z,3.08
2022-12-07T14:28:28.635Z,9.15
2022-12-07T14:30:55.556Z,10.27
2022-12-07T14:33:23.065Z,13.40
2022-12-07T14:35:50.400Z,9.70
2022-12-07T14:38:19.524Z,8.73
2022-12-07T14:40:46.869Z,8.88
2022-12-07T14:43:16.556Z,7.65
2022-12-07T14:45:44.636Z,8.98
2022-12-07T14:53:55.494Z,15.20
2022-12-07T14:56:25.860Z,18.55
2022-12-07T14:58:53.406Z,13.60
2022-12-07T15:01:20.844Z,9.02
2022-12-07T15:03:48.156Z,5.25
2022-12-07T15:06:17.233Z,2.78
2022-12-07T15:08:45.595Z,2.67
2022-12-07T15:11:17.715Z,5.47
2022-12-07T15:14:03.499Z,4.10
2022-12-07T15:16:52.424Z,4.45
2022-12-07T15:19:32.134Z,10.90
2022-12-07T15:22:01.183Z,2.38
2022-12-07T15:24:28.546Z,9.10
2022-12-07T15:26:55.756Z,11.80
2022-12-07T15:29:23.971Z,11.57
2022-12-07T15:31:57.379Z,16.55
2022-12-07T15:34:26.810Z,18.92
2022-12-07T15:36:54.104Z,14.77
2022-12-07T15:39:21.396Z,48.97
2022-12-07T15:41:48.492Z,16.30
2022-12-07T15:44:36.024Z,6.97
2022-12-07T15:47:03.141Z,40.25
2022-12-07T15:49:30.393Z,8.65
2022-12-07T15:51:57.631Z,6.80
2022-12-07T15:54:27.172Z,18.13
2022-12-07T15:56:55.355Z,18.90
2022-12-07T15:59:22.975Z,17.65
2022-12-07T16:01:50.467Z,24.15
2022-12-07T16:04:19.814Z,27.83
2022-12-07T16:06:47.852Z,26.58
2022-12-07T16:09:15.048Z,40.13
2022-12-07T16:11:42.337Z,31.48
2022-12-07T16:14:09.547Z,55.50
2022-12-07T16:16:37.022Z,25.48
2022-12-07T16:19:04.542Z,21.67
2022-12-07T16:21:32.467Z,16.98
2022-12-07T16:24:01.111Z,17.65
2022-12-07T16:26:28.764Z,18.08
2022-12-07T16:28:56.636Z,14.70
2022-12-07T16:31:26.089Z,17.83
2022-12-07T16:33:58.030Z,11.57
2022-12-07T16:37:02.698Z,16.65
2022-12-07T16:39:14.496Z,13.65
2022-12-07T16:41:41.636Z,29.92
2022-12-07T16:44:12.355Z,20.88
2022-12-07T16:46:39.615Z,17.48
2022-12-07T16:49:06.895Z,9.18
2022-12-07T16:51:36.064Z,19.42
2022-12-07T16:54:03.236Z,16.90
2022-12-07T16:56:31.016Z,8.57
2022-12-07T16:59:01.475Z,9.55
2022-12-07T17:01:29.743Z,6.78
2022-12-07T17:03:58.983Z,7.93
2022-12-07T17:06:28.752Z,9.32
2022-12-07T17:08:57.784Z,7.15
2022-12-07T17:11:32.061Z,9.95
2022-12-07T17:14:23.396Z,3.10
2022-12-07T17:16:50.720Z,3.63
2022-12-07T17:19:18.276Z,3.33
2022-12-07T17:21:46.428Z,3.70
2022-12-07T17:24:15.795Z,3.85
2022-12-07T17:26:44.568Z,7.15
2022-12-07T17:29:13.073Z,8.05
2022-12-07T17:31:44.990Z,9.82
2022-12-07T17:34:16.279Z,7.93
2022-12-07T17:36:43.918Z,12.10
2022-12-07T17:39:12.762Z,8.98
2022-12-07T17:41:58.687Z,9.35
2022-12-07T17:44:26.130Z,6.05
2022-12-07T17:46:59.367Z,2.55
2022-12-07T17:49:27.498Z,2.38
2022-12-07T17:52:14.059Z,1.73
2022-12-07T17:54:41.599Z,5.55
2022-12-07T17:57:08.926Z,4.65
2022-12-07T17:59:36.147Z,3.83
2022-12-07T18:02:03.413Z,4.30
2022-12-07T18:04:30.876Z,7.90
2022-12-07T18:06:58.784Z,4.18
2022-12-07T18:09:25.935Z,17.02
2022-12-07T18:11:52.808Z,10.65
2022-12-07T18:14:19.780Z,9.57
2022-12-07T18:16:47.099Z,2.83
2022-12-07T18:19:15.137Z,3.25
2022-12-07T18:21:43.314Z,3.00
2022-12-07T18:24:13.445Z,2.35
2022-12-07T18:26:41.874Z,1.65
2022-12-07T18:29:11.353Z,1.45
2022-12-07T18:31:38.984Z,1.88
2022-12-07T18:34:12.270Z,1.88
2022-12-07T18:36:42.729Z,3.40
2022-12-07T18:39:13.496Z,5.20
2022-12-07T18:41:41.904Z,8.98
2022-12-07T18:44:09.998Z,9.20
2022-12-07T18:46:37.475Z,8.55
2022-12-07T18:49:05.054Z,13.57
2022-12-07T18:51:32.976Z,25.33
2022-12-07T18:54:01.599Z,17.90
2022-12-07T18:56:29.504Z,16.60
2022-12-07T18:59:17.283Z,13.60
2022-12-07T19:01:46.537Z,3.08
2022-12-07T19:04:13.846Z,5.10
2022-12-07T19:06:45.946Z,0.60
2022-12-07T19:09:13.775Z,2.28
2022-12-07T19:11:50.530Z,7.93
2022-12-07T19:14:29.586Z,4.90
2022-12-07T19:17:02.934Z,2.78
2022-12-07T19:19:35.454Z,3.00
2022-12-07T19:22:04.030Z,43.83
2022-12-07T19:24:31.315Z,50.95
2022-12-07T19:26:58.995Z,82.10
2022-12-07T19:29:28.425Z,47.22
2022-12-07T19:31:55.819Z,17.98
2022-12-07T19:34:23.234Z,6.63
2022-12-07T19:36:50.694Z,11.60
2022-12-07T19:39:17.691Z,16.05
2022-12-07T19:41:45.626Z,26.08
2022-12-07T19:44:18.348Z,18.10
2022-12-07T19:49:18.008Z,8.38
2022-12-07T19:51:51.985Z,5.82
2022-12-07T19:54:22.344Z,12.90
2022-12-07T19:56:50.763Z,4.28
2022-12-07T19:59:19.732Z,10.73
2022-12-07T20:01:48.120Z,18.15
2022-12-07T20:04:23.455Z,14.77
2022-12-07T20:06:53.552Z,29.38
2022-12-07T20:09:21.179Z,11.63
2022-12-07T20:12:07.060Z,16.80
2022-12-07T20:14:34.916Z,6.90
2022-12-07T20:17:02.144Z,7.10
2022-12-07T20:19:29.454Z,8.27
2022-12-07T20:21:57.035Z,6.88
2022-12-07T20:24:25.947Z,2.80
2022-12-07T20:26:54.524Z,3.33
2022-12-07T20:29:24.574Z,3.50
2022-12-07T20:31:53.088Z,4.18
2022-12-07T20:34:20.001Z,2.00
2022-12-07T20:36:47.019Z,1.38
2022-12-07T20:39:13.795Z,1.35
2022-12-07T20:41:59.281Z,2.83
2022-12-07T20:44:26.394Z,1.52
2022-12-07T20:46:53.707Z,2.65
2022-12-07T20:49:21.026Z,2.72
2022-12-07T20:51:48.664Z,2.65
2022-12-07T20:54:17.106Z,2.80
2022-12-07T20:56:44.616Z,2.30
2022-12-07T20:59:14.898Z,3.50
2022-12-07T21:01:43.119Z,2.47
2022-12-07T21:04:11.716Z,2.35
2022-12-07T21:06:38.714Z,2.25
2022-12-07T21:09:05.755Z,2.15
2022-12-07T21:11:33.004Z,1.38
2022-12-07T21:13:59.856Z,2.10
2022-12-07T21:16:29.088Z,2.05
2022-12-07T21:18:57.643Z,2.30
2022-12-07T21:21:25.063Z,2.13
2022-12-07T21:23:56.871Z,1.65
2022-12-07T21:26:26.966Z,1.90
2022-12-07T21:28:54.206Z,1.58
2022-12-07T21:31:21.912Z,1.52
2022-12-07T21:33:50.316Z,2.63
2022-12-07T21:36:20.301Z,1.95
2022-12-07T21:38:48.375Z,2.28
2022-12-07T21:41:16.372Z,2.38
2022-12-07T21:43:44.646Z,1.45
2022-12-07T21:46:13.035Z,3.10
2022-12-07T21:48:41.122Z,2.00
2022-12-07T21:51:12.396Z,2.45
2022-12-07T21:53:41.377Z,2.15
2022-12-07T21:56:29.160Z,6.97
2022-12-07T21:59:01.516Z,3.42
2022-12-07T22:01:31.522Z,3.10
2022-12-07T22:03:59.074Z,3.42
2022-12-07T22:06:26.528Z,2.40
2022-12-07T22:08:54.936Z,4.63
2022-12-07T22:11:22.656Z,2.97
2022-12-07T22:14:10.479Z,3.15
2022-12-07T22:16:39.215Z,2.58
2022-12-07T22:19:07.605Z,2.40
2022-12-07T22:21:35.804Z,2.35
2022-12-07T22:24:04.236Z,2.10
2022-12-07T22:26:32.295Z,2.05
2022-12-07T22:28:59.794Z,2.15
2022-12-07T22:31:27.041Z,3.38
2022-12-07T22:33:54.055Z,13.70
2022-12-07T22:36:21.333Z,3.28
2022-12-07T22:38:48.307Z,6.18
2022-12-07T22:41:30.513Z,3.22
2022-12-07T22:43:58.053Z,5.55
2022-12-07T22:46:26.108Z,4.57
2022-12-07T22:48:53.805Z,7.30
2022-12-07T22:51:31.614Z,6.40
2022-12-07T22:54:00.453Z,7.25
2022-12-07T22:56:29.164Z,5.32
2022-12-07T22:58:56.525Z,3.78
2022-12-07T23:01:24.315Z,6.30
2022-12-07T23:03:51.935Z,3.92
2022-12-07T23:06:24.736Z,6.07
2022-12-07T23:11:41.220Z,5.05
2022-12-07T23:14:14.518Z,17.77
2022-12-07T23:16:41.965Z,15.32
2022-12-07T23:19:09.403Z,8.55
2022-12-07T23:21:36.716Z,11.07
2022-12-07T23:24:04.737Z,4.90
2022-12-07T23:26:32.404Z,7.78
2022-12-07T23:28:59.638Z,9.32
2022-12-07T23:31:26.766Z,6.82
2022-12-07T23:33:54.066Z,3.05
2022-12-07T23:36:23.666Z,1.73
2022-12-07T23:38:52.526Z,2.38
2022-12-07T23:41:22.343Z,2.17
2022-12-07T23:43:50.106Z,2.50
2022-12-07T23:46:22.659Z,1.48
2022-12-07T23:48:51.765Z,1.98
2022-12-07T23:51:19.347Z,4.75
2022-12-07T23:53:47.886Z,3.03
2022-12-07T23:56:23.275Z,2.10
2022-12-07T23:58:51.813Z,3.38
